Wolf, WY (82844)

3:52 PM MDT on July 29, 2016 (GMT -0600)
uptown | | Change Station

Elev 4327 ft 44.96 °N, 107.33 °W | Updated 11 seconds ago

Clear
Clear
85.1 °F
Feels Like 82 °F
N
7.2
Wind Variable Wind from North
Gusts 9.8 mph

Today
High -- | Low -- °F
--% Chance of Precip.
Yesterday
High -- | Low -- °F
Precip. -- in
Pressure 29.94 in
Visibility 10.0 miles
Clouds Clear
Heat Index 82 °F
Dew Point 43 °F
Humidity 23%
Rainfall in
Snow Depth Not available.
5:52 AM 8:37 PM
Waning Crescent, 19% visible
METAR KSHR 292053Z AUTO VRB03KT 10SM CLR 30/07 A3005 RMK AO2 SLP139 T03000072 58014
Pressure 29.94 in
Visibility 10.0 miles
Clouds Clear
Heat Index 82 °F
Dew Point 43 °F
Humidity 23%
Rainfall in
Snow Depth Not available.
5:52 AM 8:37 PM
Waning Crescent, 19% visible
METAR KSHR 292053Z AUTO VRB03KT 10SM CLR 30/07 A3005 RMK AO2 SLP139 T03000072 58014

10-Day Weather Forecast

Almanac

Astronomy

Jul. 29, 2016 Rise Set
Actual Time
Civil Twilight
Nautical Twilight
Astronomical Twilight
Moon
Length of Visible Light
Length of Day
Tomorrow will be .
, % of the Moon is Illuminated

Today's Extremes

State Highs State Lows

Community

WunderPhotos

Upload Photos

1,928,423 photos uploaded!

WunderBlog® & News

Nearby

Air Quality

  Air Quality AQ Index Pollutant
Not available.

Snow Depth

Station Depth Elevation

Earthquake Activity

City Distance Mag. Time & Date
Minimum magnitude displayed is 2.5.

Coastal Water Temperatures

Place Temperature

Stations

Nearby Weather Stations

Station Location Temp. Windchill Dew Point Humidity Wind Precip. Elev Updated Type
                   

Watches & Warnings

There are currently no watches in effect.